Terminal Aerodrome Forecast
Issued by NWS

Home | Current Version | Previous Version | Text Only | Print | Product List | Glossary On
Versions: 1 2 3 4 5 6 7 8 9 10 11 12 13
000
FTUS42 TJSJ 011100
TAFJBQ
TAF
TJBQ 011139Z 0112/0212 VRB04KT P6SM FEW030
     FM011430 08012KT P6SM FEW025
     FM011800 VRB12KT P6SM VCSH SCT025 BKN040
     FM012300 09008KT P6SM SCT025=

USA.gov is the U.S. government's official web portal to all federal, state and local government web resources and services.